Floyd Bennett Memorial Airport Glens Falls US
ICAO: KGFL
IATA: GFL
Category: Medium
Scheduled Services: No

Elevation: 328 ft
TransAlt. 18000 ft.

Airport Communications:
ALBANY APP/DEP:125
ASOS:119.25
BURLINGTON RDO:122.2
CTAF/UNICOM:123

KGFL Zoom In..

Runways:

(A) RW 01 length 5000 ft width 150 ft
ILS 110.70 / hdg 12

(B) RW 12 length 3999 ft width 100 ft
---- / hdg 124

(C) RW 19 length 5000 ft width 150 ft
---- / hdg 192

(D) RW 30 length 3999 ft width 100 ft
---- / hdg 304

Location; KGFL
Day. 23 / Time. 09.53 Zulu
* Altimeter: 30.09
* Temperature: 21° c. 69.8°f.
* Wind from: 000° Speed 00 kn.
Dewpoint: 21° c.
Visibility: 10 Statute Miles.
Clouds: Few 3200 ft.
Clouds: Scattered 4000 ft.
Clouds: Broken 4800 ft.

KGFL 230953Z AUTO 00000KT 10SM FEW032 SCT040 BKN048 21/21 A3009 RMK AO2 RAE28 SLP187 P0001 T02110211


Wind - Calm.

 
 
jpsmedia.com for Web Design worldairports.se 2018   terms of use